Delphia, Montana
Current Conditions -  °F | °C
As of 11:55 AM on Monday 20 Oct 2014 (Local Time) from KMVH Reporting Station
Clear Clear  
Wind Chill: 73°   Ceiling: Unl
Heat Index: 73°   Visibility: 10mi
Dew Point: 28°   Wind: 0mph
Humidity: 19%   Direction: NA
Pressure: 29.93"   Gusts: NA
Location:  46.5044°N, 108.218°W
Report Text: KMVH 201755Z AUTO 00000KT 10SM CLR 23/M02 A2993 RMK A01
Loading
Personal Weather Stations






























Interactive Weather Map
Tropical Storm Tracking
New forecast layout! Learn more

10-Day Weather Forecast

Advertisements
Track Severe Weather on mobile